createdAt,value
2019-02-06T00:02:50.105Z,101399.54
2019-02-06T00:05:51.996Z,101403.69
2019-02-06T00:08:54.001Z,101408.84
2019-02-06T00:11:55.913Z,101408.95
2019-02-06T00:14:57.933Z,101405.59
2019-02-06T00:17:59.973Z,101401.92
2019-02-06T00:21:02.483Z,101409.24
2019-02-06T00:24:05.659Z,101416.26
2019-02-06T00:27:07.654Z,101414.78
2019-02-06T00:30:12.240Z,101413.20
2019-02-06T00:33:15.386Z,101413.42
2019-02-06T00:36:17.302Z,101421.11
2019-02-06T00:39:20.392Z,101416.05
2019-02-06T00:42:22.291Z,101419.55
2019-02-06T00:45:24.344Z,101421.35
2019-02-06T00:48:26.283Z,101424.55
2019-02-06T00:51:28.250Z,101414.80
2019-02-06T00:54:30.134Z,101425.15
2019-02-06T00:57:32.047Z,101423.09
2019-02-06T01:00:34.014Z,101435.67
2019-02-06T01:03:36.039Z,101436.93
2019-02-06T01:06:37.948Z,101433.73
2019-02-06T01:09:41.461Z,101438.22
2019-02-06T01:12:43.746Z,101435.16
2019-02-06T01:15:45.687Z,101427.53
2019-02-06T01:18:47.608Z,101428.17
2019-02-06T01:21:49.582Z,101430.67
2019-02-06T01:24:51.508Z,101427.00
2019-02-06T01:27:53.427Z,101431.19
2019-02-06T01:30:57.172Z,101433.39
2019-02-06T01:33:59.106Z,101438.23
2019-02-06T01:37:01.320Z,101428.50
2019-02-06T01:40:06.113Z,101444.53
2019-02-06T01:43:08.325Z,101434.10
2019-02-06T01:46:11.037Z,101438.90
2019-02-06T01:49:13.055Z,101435.53
2019-02-06T01:52:15.025Z,101432.22
2019-02-06T01:55:16.973Z,101436.41
2019-02-06T01:58:19.020Z,101425.53
2019-02-06T02:01:21.023Z,101419.26
2019-02-06T02:04:22.928Z,101424.17
2019-02-06T02:07:24.902Z,101425.48
2019-02-06T02:10:26.991Z,101423.81
2019-02-06T02:13:28.891Z,101426.12
2019-02-06T02:16:30.798Z,101425.48
2019-02-06T02:19:32.735Z,101427.19
2019-02-06T02:22:34.618Z,101428.44
2019-02-06T02:25:36.529Z,101431.09
2019-02-06T02:28:39.297Z,101429.50
2019-02-06T02:31:41.216Z,101423.54
2019-02-06T02:34:43.105Z,101432.88
2019-02-06T02:37:45.059Z,101430.34
2019-02-06T02:40:47.033Z,101431.69
2019-02-06T02:43:49.024Z,101426.25
2019-02-06T02:46:50.999Z,101426.35
2019-02-06T02:49:52.976Z,101427.20
2019-02-06T02:52:55.508Z,101427.31
2019-02-06T02:55:57.636Z,101432.23
2019-02-06T02:58:59.649Z,101439.67
2019-02-06T03:02:06.310Z,101433.30
2019-02-06T03:05:08.885Z,101435.41
2019-02-06T03:08:10.769Z,101436.66
2019-02-06T03:11:12.624Z,101435.12
2019-02-06T03:14:14.541Z,101425.10
2019-02-06T03:17:16.456Z,101430.21
2019-02-06T03:20:18.502Z,101430.20
2019-02-06T03:23:20.431Z,101434.06
2019-02-06T03:26:22.362Z,101430.27
2019-02-06T03:29:24.265Z,101439.61
2019-02-06T03:32:26.140Z,101436.66
2019-02-06T03:35:28.626Z,101434.36
2019-02-06T03:38:30.622Z,101435.82
2019-02-06T03:41:32.587Z,101439.56
2019-02-06T03:44:34.516Z,101445.01
2019-02-06T03:47:36.534Z,101443.75
2019-02-06T03:50:38.483Z,101447.12
2019-02-06T03:53:40.424Z,101440.85
2019-02-06T03:56:42.305Z,101446.11
2019-02-06T03:59:44.192Z,101451.33
2019-02-06T04:02:46.203Z,101445.88
2019-02-06T04:05:48.065Z,101449.25
2019-02-06T04:08:50.333Z,101448.19
2019-02-06T04:11:52.238Z,101448.38
2019-02-06T04:14:54.158Z,101448.38
2019-02-06T04:17:56.093Z,101451.81
2019-02-06T04:20:58.078Z,101454.64
2019-02-06T04:23:59.953Z,101454.64
2019-02-06T04:27:01.938Z,101456.95
2019-02-06T04:30:07.517Z,101450.37
2019-02-06T04:33:09.496Z,101453.71
2019-02-06T04:36:11.477Z,101455.94
2019-02-06T04:39:13.828Z,101455.07
2019-02-06T04:42:15.986Z,101463.23
2019-02-06T04:45:18.563Z,101464.81
2019-02-06T04:48:20.500Z,101460.20
2019-02-06T04:51:22.660Z,101463.63
2019-02-06T04:54:25.727Z,101463.20
2019-02-06T04:57:27.701Z,101468.65
2019-02-06T05:00:29.571Z,101462.81
2019-02-06T05:03:31.496Z,101457.59
2019-02-06T05:06:33.364Z,101466.59
2019-02-06T05:09:35.345Z,101466.77
2019-02-06T05:12:37.280Z,101470.25
2019-02-06T05:15:39.511Z,101475.34
2019-02-06T05:18:41.439Z,101472.62
2019-02-06T05:21:43.478Z,101472.55
2019-02-06T05:24:45.421Z,101475.99
2019-02-06T05:27:47.453Z,101478.06
2019-02-06T05:30:49.391Z,101473.91
2019-02-06T05:33:51.266Z,101476.23
2019-02-06T05:36:53.246Z,101481.26
2019-02-06T05:39:55.235Z,101488.37
2019-02-06T05:42:57.175Z,101497.48
2019-02-06T05:45:59.050Z,101485.77
2019-02-06T05:49:01.286Z,101493.63
2019-02-06T05:52:03.496Z,101496.36
2019-02-06T05:55:06.144Z,101499.20
2019-02-06T05:58:08.023Z,101499.08
2019-02-06T06:01:09.983Z,101502.85
2019-02-06T06:04:11.872Z,101497.30
2019-02-06T06:07:13.880Z,101508.70
2019-02-06T06:10:17.713Z,101513.09
2019-02-06T06:13:19.984Z,101513.50
2019-02-06T06:16:21.881Z,101516.75
2019-02-06T06:19:23.851Z,101517.78
2019-02-06T06:22:25.868Z,101521.26
2019-02-06T06:25:28.106Z,101533.81
2019-02-06T06:28:30.247Z,101533.70
2019-02-06T06:31:32.121Z,101526.57
2019-02-06T06:34:34.057Z,101534.73
2019-02-06T06:37:36.305Z,101540.58
2019-02-06T06:40:39.524Z,101538.98
2019-02-06T06:43:41.481Z,101544.73
2019-02-06T06:46:43.911Z,101542.11
2019-02-06T06:49:45.891Z,101552.58
2019-02-06T06:52:47.850Z,101552.48
2019-02-06T06:55:49.712Z,101559.53
2019-02-06T06:58:51.635Z,101557.45
2019-02-06T07:01:53.650Z,101558.95
2019-02-06T07:04:55.565Z,101567.23
2019-02-06T07:08:08.821Z,101561.86
2019-02-06T07:11:01.267Z,101565.89
2019-02-06T07:14:03.383Z,101568.44
2019-02-06T07:17:05.239Z,101574.23
2019-02-06T07:20:10.892Z,101567.45
2019-02-06T07:23:13.907Z,101574.19
2019-02-06T07:26:15.884Z,101569.88
2019-02-06T07:29:18.168Z,101577.98
2019-02-06T07:32:20.152Z,101573.23
2019-02-06T07:35:22.624Z,101573.66
2019-02-06T07:38:24.693Z,101571.47
2019-02-06T07:41:26.753Z,101581.95
2019-02-06T07:44:28.666Z,101580.52
2019-02-06T07:47:30.520Z,101583.13
2019-02-06T07:50:33.429Z,101588.50
2019-02-06T07:53:35.415Z,101582.30
2019-02-06T07:56:37.420Z,101590.63
2019-02-06T07:59:39.300Z,101585.28
2019-02-06T08:02:41.645Z,101586.53
2019-02-06T08:05:43.674Z,101584.36
2019-02-06T08:08:45.584Z,101588.34
2019-02-06T08:11:47.496Z,101579.42
2019-02-06T08:14:49.382Z,101584.03
2019-02-06T08:17:51.492Z,101574.70
2019-02-06T08:20:53.524Z,101577.33
2019-02-06T08:23:55.531Z,101577.23
2019-02-06T08:26:57.670Z,101580.02
2019-02-06T08:29:59.573Z,101574.00
2019-02-06T08:33:01.619Z,101575.67
2019-02-06T08:36:04.050Z,101581.73
2019-02-06T08:39:06.747Z,101578.42
2019-02-06T08:42:08.675Z,101568.63
2019-02-06T08:45:13.961Z,101571.16
2019-02-06T08:48:15.909Z,101569.50
2019-02-06T08:51:17.936Z,101573.16
2019-02-06T08:54:20.446Z,101577.01
2019-02-06T08:57:22.560Z,101566.13
2019-02-06T09:00:30.043Z,101575.29
2019-02-06T09:03:31.934Z,101572.39
2019-02-06T09:06:33.995Z,101569.92
2019-02-06T09:09:35.833Z,101573.88
2019-02-06T09:12:37.743Z,101576.52
2019-02-06T09:15:39.588Z,101576.03
2019-02-06T09:18:41.804Z,101566.97
2019-02-06T09:21:43.698Z,101572.51
2019-02-06T09:24:45.649Z,101564.15
2019-02-06T09:27:47.725Z,101564.33
2019-02-06T09:30:49.710Z,101562.37
2019-02-06T09:33:51.698Z,101566.17
2019-02-06T09:36:53.607Z,101561.91
2019-02-06T09:39:55.503Z,101561.31
2019-02-06T09:42:57.528Z,101554.33
2019-02-06T09:45:59.475Z,101550.16
2019-02-06T09:49:01.514Z,101559.28
2019-02-06T09:52:03.748Z,101548.77
2019-02-06T09:55:06.030Z,101554.30
2019-02-06T09:58:07.984Z,101554.78
2019-02-06T10:01:09.907Z,101556.28
2019-02-06T10:04:11.841Z,101551.27
2019-02-06T10:07:13.733Z,101549.41
2019-02-06T10:10:18.299Z,101536.81
2019-02-06T10:13:20.256Z,101543.34
2019-02-06T10:16:22.183Z,101536.62
2019-02-06T10:19:24.102Z,101524.83
2019-02-06T10:22:25.987Z,101518.46
2019-02-06T10:25:29.400Z,101526.39
2019-02-06T10:28:31.285Z,101524.56
2019-02-06T10:31:33.228Z,101519.41
2019-02-06T10:34:35.116Z,101514.49
2019-02-06T10:37:37.627Z,101512.22
2019-02-06T10:40:39.534Z,101512.17
2019-02-06T10:43:42.518Z,101501.81
2019-02-06T10:46:44.473Z,101505.98
2019-02-06T10:49:46.599Z,101490.13
2019-02-06T10:52:49.656Z,101485.66
2019-02-06T10:55:51.700Z,101474.84
2019-02-06T10:58:54.041Z,101478.10
2019-02-06T11:01:56.133Z,101464.63
2019-02-06T11:04:58.112Z,101463.14
2019-02-06T11:08:00.181Z,101464.08
2019-02-06T11:11:02.067Z,101465.75
2019-02-06T11:14:04.266Z,101461.67
2019-02-06T11:17:06.230Z,101469.66
2019-02-06T11:20:14.820Z,101468.49
2019-02-06T11:23:16.683Z,101465.39
2019-02-06T11:26:18.668Z,101468.32
2019-02-06T11:29:20.550Z,101462.83
2019-02-06T11:32:23.110Z,101469.66
2019-02-06T11:35:24.997Z,101457.25
2019-02-06T11:38:28.057Z,101462.64
2019-02-06T11:41:30.073Z,101468.70
2019-02-06T11:44:33.351Z,101462.27
2019-02-06T11:47:35.218Z,101452.59
2019-02-06T11:50:39.039Z,101448.30
2019-02-06T11:53:41.150Z,101441.67
2019-02-06T11:56:43.156Z,101445.02
2019-02-06T11:59:45.084Z,101442.59
2019-02-06T12:02:46.989Z,101442.34
2019-02-06T12:05:48.964Z,101447.47
2019-02-06T12:08:50.969Z,101443.36
2019-02-06T12:11:53.034Z,101439.61
2019-02-06T12:14:54.963Z,101428.83
2019-02-06T12:17:56.924Z,101432.59
2019-02-06T12:20:58.883Z,101424.47
2019-02-06T12:24:01.330Z,101419.03
2019-02-06T12:27:03.542Z,101411.24
2019-02-06T12:30:15.053Z,101403.68
2019-02-06T12:33:17.274Z,101391.21
2019-02-06T12:36:19.128Z,101389.50
2019-02-06T12:39:22.783Z,101382.30
2019-02-06T12:42:24.894Z,101385.83
2019-02-06T12:45:26.812Z,101379.61
2019-02-06T12:48:29.202Z,101372.47
2019-02-06T12:51:31.582Z,101371.47
2019-02-06T12:54:33.640Z,101359.63
2019-02-06T12:57:37.442Z,101361.25
2019-02-06T13:00:41.644Z,101353.34
2019-02-06T13:03:43.682Z,101340.38
2019-02-06T13:06:47.885Z,101336.93
2019-02-06T13:09:50.702Z,101332.72
2019-02-06T13:12:52.731Z,101327.30
2019-02-06T13:15:54.618Z,101320.28
2019-02-06T13:18:56.546Z,101327.61
2019-02-06T13:21:58.431Z,101317.34
2019-02-06T13:25:00.377Z,101326.59
2019-02-06T13:28:03.117Z,101319.87
2019-02-06T13:31:05.595Z,101303.86
2019-02-06T13:34:07.681Z,101304.70
2019-02-06T13:37:09.604Z,101305.42
2019-02-06T13:40:16.992Z,101308.88
2019-02-06T13:43:18.990Z,101320.20
2019-02-06T13:46:20.974Z,101317.38
2019-02-06T13:49:22.831Z,101321.65
2019-02-06T13:52:28.204Z,101314.84
2019-02-06T13:55:31.431Z,101311.91
2019-02-06T13:58:33.482Z,101308.66
2019-02-06T14:01:37.217Z,101296.81
2019-02-06T14:04:42.231Z,101287.67
2019-02-06T14:07:44.114Z,101287.84
2019-02-06T14:10:58.452Z,101285.54
2019-02-06T14:13:54.719Z,101285.13
2019-02-06T14:16:58.253Z,101285.13
2019-02-06T14:20:01.369Z,101280.82
2019-02-06T14:23:16.160Z,101271.48
2019-02-06T14:26:27.828Z,101273.91
2019-02-06T14:29:42.739Z,101261.02
2019-02-06T14:33:01.156Z,101262.56
2019-02-06T14:36:33.559Z,101254.80
2019-02-06T14:39:43.643Z,101252.73
2019-02-06T14:42:55.581Z,101246.34
2019-02-06T14:46:29.159Z,101237.95
2019-02-06T14:49:40.911Z,101244.31
2019-02-06T14:52:50.085Z,101234.55
2019-02-06T14:56:13.874Z,101235.19
2019-02-06T14:59:27.646Z,101229.83
2019-02-06T15:02:42.520Z,101233.72
2019-02-06T15:06:03.053Z,101222.50
2019-02-06T15:09:42.805Z,101224.66
2019-02-06T15:12:53.981Z,101223.70
2019-02-06T15:15:59.797Z,101217.48
2019-02-06T15:19:11.663Z,101213.69
2019-02-06T15:22:37.194Z,101206.66
2019-02-06T15:25:42.712Z,101203.37
2019-02-06T15:29:00.256Z,101200.89
2019-02-06T15:32:14.604Z,101197.92
2019-02-06T15:35:32.620Z,101198.19
2019-02-06T15:38:41.141Z,101188.83
2019-02-06T15:41:58.976Z,101196.37
2019-02-06T15:45:16.710Z,101186.45
2019-02-06T15:48:28.515Z,101182.34
2019-02-06T15:51:43.079Z,101177.31
2019-02-06T15:55:13.894Z,101178.05
2019-02-06T15:58:22.455Z,101172.13
2019-02-06T16:01:43.309Z,101169.22
2019-02-06T16:05:05.572Z,101173.45
2019-02-06T16:08:13.932Z,101170.17
2019-02-06T16:11:42.386Z,101167.77
2019-02-06T16:14:43.899Z,101159.66
2019-02-06T16:18:01.712Z,101154.34
2019-02-06T16:21:23.725Z,101156.61
2019-02-06T16:24:34.955Z,101162.27
2019-02-06T16:27:43.490Z,101160.63
2019-02-06T16:30:58.084Z,101150.57
2019-02-06T16:34:28.102Z,101146.69
2019-02-06T16:37:46.924Z,101137.14
2019-02-06T16:41:01.276Z,101132.84
2019-02-06T16:44:40.514Z,101134.42
2019-02-06T16:47:58.328Z,101126.78
2019-02-06T16:51:08.272Z,101130.56
2019-02-06T16:54:14.251Z,101126.10
2019-02-06T16:57:32.838Z,101121.45
2019-02-06T17:00:50.514Z,101122.22
2019-02-06T17:04:14.299Z,101121.24
2019-02-06T17:07:25.735Z,101125.64
2019-02-06T17:10:55.541Z,101119.89
2019-02-06T17:14:29.996Z,101125.06
2019-02-06T17:17:50.379Z,101123.20
2019-02-06T17:21:18.339Z,101108.10
2019-02-06T17:24:45.179Z,101107.21
2019-02-06T17:28:17.472Z,101099.91
2019-02-06T17:31:29.796Z,101099.84
2019-02-06T17:34:53.127Z,101096.45
2019-02-06T17:38:17.279Z,101096.17
2019-02-06T17:41:27.267Z,101089.48
2019-02-06T17:45:08.521Z,101097.52
2019-02-06T17:48:31.130Z,101093.17
2019-02-06T17:52:00.323Z,101093.22
2019-02-06T17:55:18.489Z,101096.41
2019-02-06T17:58:20.461Z,101095.91
2019-02-06T18:01:26.218Z,101094.61
2019-02-06T18:04:29.277Z,101097.03
2019-02-06T18:07:31.792Z,101088.89
2019-02-06T18:10:34.093Z,101085.78
2019-02-06T18:13:37.346Z,101084.44
2019-02-06T18:16:39.971Z,101087.23
2019-02-06T18:19:42.319Z,101086.93
2019-02-06T18:22:44.287Z,101082.96
2019-02-06T18:25:46.592Z,101085.03
2019-02-06T18:28:52.947Z,101079.01
2019-02-06T18:31:57.071Z,101077.70
2019-02-06T18:34:58.963Z,101078.22
2019-02-06T18:38:03.270Z,101073.86
2019-02-06T18:41:05.858Z,101065.33
2019-02-06T18:44:08.292Z,101059.45
2019-02-06T18:47:10.614Z,101063.98
2019-02-06T18:50:31.146Z,101059.61
2019-02-06T18:53:33.631Z,101060.29
2019-02-06T18:56:37.234Z,101055.45
2019-02-06T18:59:39.823Z,101054.42
2019-02-06T19:02:42.290Z,101052.40
2019-02-06T19:05:45.760Z,101042.81
2019-02-06T19:08:48.274Z,101039.16
2019-02-06T19:11:54.257Z,101028.09
2019-02-06T19:14:58.870Z,101031.61
2019-02-06T19:18:00.766Z,101026.42
2019-02-06T19:21:17.314Z,101029.44
2019-02-06T19:24:21.469Z,101031.07
2019-02-06T19:27:24.493Z,101022.98
2019-02-06T19:30:32.493Z,101016.25
2019-02-06T19:33:34.446Z,101018.43
2019-02-06T19:36:38.250Z,101016.18
2019-02-06T19:39:40.394Z,101018.48
2019-02-06T19:42:42.940Z,101018.44
2019-02-06T19:45:44.968Z,101013.72
2019-02-06T19:48:49.074Z,101002.93
2019-02-06T19:51:51.366Z,101003.25
2019-02-06T19:54:55.113Z,101000.59
2019-02-06T19:57:59.311Z,100989.82
2019-02-06T20:01:03.920Z,100994.34
2019-02-06T20:04:08.273Z,100987.27
2019-02-06T20:07:10.688Z,100991.44
2019-02-06T20:10:20.290Z,100983.19
2019-02-06T20:13:25.163Z,100977.28
2019-02-06T20:16:27.803Z,100978.63
2019-02-06T20:19:29.815Z,100981.80
2019-02-06T20:22:32.547Z,100979.97
2019-02-06T20:25:37.138Z,100974.22
2019-02-06T20:28:39.187Z,100967.32
2019-02-06T20:31:41.165Z,100968.05
2019-02-06T20:34:43.494Z,100957.52
2019-02-06T20:37:48.704Z,100966.21
2019-02-06T20:40:51.056Z,100966.41
2019-02-06T20:43:52.921Z,100961.42
2019-02-06T20:46:58.811Z,100964.47
2019-02-06T20:50:05.615Z,100956.45
2019-02-06T20:53:09.845Z,100953.13
2019-02-06T20:56:11.771Z,100939.88
2019-02-06T20:59:14.098Z,100945.08
2019-02-06T21:02:17.108Z,100942.73
2019-02-06T21:05:19.234Z,100941.06
2019-02-06T21:08:22.557Z,100929.30
2019-02-06T21:11:24.829Z,100932.48
2019-02-06T21:14:26.749Z,100926.07
2019-02-06T21:17:30.524Z,100926.91
2019-02-06T21:20:36.005Z,100927.38
2019-02-06T21:23:38.001Z,100920.14
2019-02-06T21:26:44.513Z,100909.41
2019-02-06T21:29:47.199Z,100906.45
2019-02-06T21:32:50.960Z,100907.83
2019-02-06T21:35:54.757Z,100909.01
2019-02-06T21:38:56.696Z,100903.15
2019-02-06T21:42:02.300Z,100902.13
2019-02-06T21:45:08.942Z,100896.74
2019-02-06T21:48:11.359Z,100891.23
2019-02-06T21:51:13.789Z,100883.66
2019-02-06T21:54:15.754Z,100876.29
2019-02-06T21:57:17.664Z,100874.64
2019-02-06T22:00:31.987Z,100871.61
2019-02-06T22:03:33.931Z,100867.92
2019-02-06T22:06:35.962Z,100866.58
2019-02-06T22:09:38.018Z,100865.55
2019-02-06T22:12:40.008Z,100861.17
2019-02-06T22:15:41.934Z,100869.59
2019-02-06T22:18:44.134Z,100863.19
2019-02-06T22:21:46.114Z,100859.50
2019-02-06T22:24:48.077Z,100852.62
2019-02-06T22:27:50.782Z,100853.61
2019-02-06T22:30:53.209Z,100850.92
2019-02-06T22:33:55.176Z,100851.76
2019-02-06T22:36:57.039Z,100847.66
2019-02-06T22:39:58.980Z,100841.26
2019-02-06T22:43:00.928Z,100846.29
2019-02-06T22:46:02.872Z,100842.95
2019-02-06T22:49:04.797Z,100839.59
2019-02-06T22:52:06.938Z,100833.54
2019-02-06T22:55:10.843Z,100831.88
2019-02-06T22:58:12.731Z,100831.88
2019-02-06T23:01:18.451Z,100827.84
2019-02-06T23:04:20.377Z,100821.94
2019-02-06T23:07:22.476Z,100823.45
2019-02-06T23:10:25.017Z,100816.17
2019-02-06T23:13:26.955Z,100821.67
2019-02-06T23:16:28.927Z,100809.56
2019-02-06T23:19:30.873Z,100808.89
2019-02-06T23:22:32.913Z,100805.22
2019-02-06T23:25:34.869Z,100808.30
2019-02-06T23:28:36.827Z,100801.61
2019-02-06T23:31:38.866Z,100802.31
2019-02-06T23:34:40.831Z,100792.64
2019-02-06T23:37:42.771Z,100794.02
2019-02-06T23:40:44.772Z,100793.37
2019-02-06T23:43:46.679Z,100779.95
2019-02-06T23:46:48.628Z,100770.55
2019-02-06T23:49:50.556Z,100770.73
2019-02-06T23:52:52.887Z,100770.59
2019-02-06T23:55:54.792Z,100762.66
2019-02-06T23:58:58.635Z,100756.59
